createdAt,value
2022-08-07T00:15:46.739Z,6.90
2022-08-07T00:35:44.406Z,7.70
2022-08-07T00:56:02.346Z,7.80
2022-08-07T01:16:05.293Z,6.60
2022-08-07T01:35:54.203Z,6.80
2022-08-07T01:55:40.612Z,4.30
2022-08-07T02:15:40.355Z,4.30
2022-08-07T02:36:29.121Z,4.30
2022-08-07T02:56:03.731Z,5.20
2022-08-07T03:15:47.686Z,5.50
2022-08-07T03:35:44.260Z,6.50
2022-08-07T03:55:57.293Z,4.10
2022-08-07T04:15:39.719Z,4.60
2022-08-07T04:35:38.463Z,4.70
2022-08-07T04:58:23.767Z,3.70
2022-08-07T05:15:38.932Z,9.80
2022-08-07T05:35:41.811Z,7.20
2022-08-07T05:56:02.800Z,7.30
2022-08-07T06:15:39.345Z,8.30
2022-08-07T06:35:45.702Z,8.20
2022-08-07T06:55:54.002Z,6.90
2022-08-07T07:15:37.810Z,4.50
2022-08-07T07:35:54.199Z,4.30
2022-08-07T07:55:37.551Z,4.20
2022-08-07T08:18:36.627Z,6.20
2022-08-07T08:35:39.091Z,5.10
2022-08-07T08:55:54.993Z,6.20
2022-08-07T09:16:25.930Z,4.70
2022-08-07T09:36:03.025Z,5.50
2022-08-07T09:56:04.741Z,4.50
2022-08-07T10:15:44.017Z,4.30
2022-08-07T10:35:56.304Z,4.10
2022-08-07T10:55:38.338Z,3.30
2022-08-07T11:15:34.034Z,2.30
2022-08-07T11:35:32.809Z,3.00
2022-08-07T11:56:25.066Z,4.30
2022-08-07T12:15:46.013Z,2.80
2022-08-07T12:35:36.342Z,3.70
2022-08-07T12:55:41.426Z,2.70
2022-08-07T13:15:31.810Z,3.60
2022-08-07T13:35:59.501Z,3.00
2022-08-07T13:55:30.985Z,3.90
2022-08-07T14:15:31.959Z,3.70
2022-08-07T14:35:44.582Z,3.30
2022-08-07T14:55:31.777Z,2.90
2022-08-07T15:15:29.818Z,3.50
2022-08-07T15:36:00.414Z,3.40
2022-08-07T15:56:02.412Z,2.50
2022-08-07T16:15:54.854Z,2.60
2022-08-07T16:35:59.206Z,2.80
2022-08-07T16:55:43.757Z,1.80
2022-08-07T17:15:43.666Z,1.90
2022-08-07T17:35:49.547Z,2.10
2022-08-07T17:56:01.393Z,1.60
2022-08-07T18:15:32.540Z,2.30
2022-08-07T18:35:28.121Z,3.80
2022-08-07T18:55:41.214Z,3.50
2022-08-07T19:16:04.215Z,4.10
2022-08-07T19:35:27.324Z,4.40
2022-08-07T19:55:57.660Z,3.30
2022-08-07T20:15:32.802Z,3.70
2022-08-07T20:35:27.117Z,4.10
2022-08-07T20:55:26.235Z,4.30
2022-08-07T21:15:58.451Z,5.30
2022-08-07T21:36:03.911Z,5.00
2022-08-07T21:55:31.927Z,7.20
2022-08-07T22:16:38.800Z,5.30
2022-08-07T22:35:23.882Z,5.80
2022-08-07T22:55:23.632Z,6.50
2022-08-07T23:16:06.795Z,6.60
2022-08-07T23:35:24.046Z,4.20
2022-08-07T23:55:52.382Z,5.10
